sensor_id;sensor_type;location;lat;lon;timestamp;pressure;altitude;pressure_sealevel;temperature;humidity
9855;BME280;4966;48.112;9.282;2023-04-20T00:01:50;94514.44;;;6.18;85.32
9855;BME280;4966;48.112;9.282;2023-04-20T00:04:16;94508.84;;;6.14;84.79
9855;BME280;4966;48.112;9.282;2023-04-20T00:06:42;94501.03;;;6.04;84.29
9855;BME280;4966;48.112;9.282;2023-04-20T00:09:10;94511.38;;;6.11;83.65
9855;BME280;4966;48.112;9.282;2023-04-20T00:11:36;94490.41;;;6.16;83.43
9855;BME280;4966;48.112;9.282;2023-04-20T00:14:01;94487.56;;;6.22;83.22
9855;BME280;4966;48.112;9.282;2023-04-20T00:16:27;94489.78;;;6.11;83.16
9855;BME280;4966;48.112;9.282;2023-04-20T00:18:52;94491.09;;;6.31;82.63
9855;BME280;4966;48.112;9.282;2023-04-20T00:21:18;94483.75;;;6.14;83.40
9855;BME280;4966;48.112;9.282;2023-04-20T00:23:48;94486.75;;;6.04;83.41
9855;BME280;4966;48.112;9.282;2023-04-20T00:26:13;94481.50;;;6.07;83.35
9855;BME280;4966;48.112;9.282;2023-04-20T00:28:38;94466.25;;;6.20;83.28
9855;BME280;4966;48.112;9.282;2023-04-20T00:31:04;94458.66;;;6.31;83.05
9855;BME280;4966;48.112;9.282;2023-04-20T00:33:30;94462.81;;;6.28;82.87
9855;BME280;4966;48.112;9.282;2023-04-20T00:35:55;94464.31;;;5.94;83.73
9855;BME280;4966;48.112;9.282;2023-04-20T00:38:20;94465.47;;;6.11;83.58
9855;BME280;4966;48.112;9.282;2023-04-20T00:40:46;94463.91;;;6.18;82.25
9855;BME280;4966;48.112;9.282;2023-04-20T00:43:17;94461.38;;;6.31;81.65
9855;BME280;4966;48.112;9.282;2023-04-20T00:45:44;94459.91;;;6.25;81.88
9855;BME280;4966;48.112;9.282;2023-04-20T00:48:09;94456.13;;;6.26;82.14
9855;BME280;4966;48.112;9.282;2023-04-20T00:50:36;94447.88;;;6.31;81.88
9855;BME280;4966;48.112;9.282;2023-04-20T00:53:01;94452.97;;;6.32;81.65
9855;BME280;4966;48.112;9.282;2023-04-20T00:55:27;94454.81;;;6.06;83.49
9855;BME280;4966;48.112;9.282;2023-04-20T00:57:54;94451.94;;;6.02;84.11
9855;BME280;4966;48.112;9.282;2023-04-20T01:00:19;94441.50;;;6.18;83.95
9855;BME280;4966;48.112;9.282;2023-04-20T01:02:45;94439.59;;;6.18;83.41
9855;BME280;4966;48.112;9.282;2023-04-20T01:05:11;94438.00;;;6.26;83.43
9855;BME280;4966;48.112;9.282;2023-04-20T01:07:36;94439.91;;;6.26;83.78
9855;BME280;4966;48.112;9.282;2023-04-20T01:10:01;94428.78;;;6.36;83.06
9855;BME280;4966;48.112;9.282;2023-04-20T01:12:27;94428.50;;;6.37;82.72
9855;BME280;4966;48.112;9.282;2023-04-20T01:14:52;94414.66;;;6.30;82.77
9855;BME280;4966;48.112;9.282;2023-04-20T01:17:19;94409.25;;;6.39;82.44
9855;BME280;4966;48.112;9.282;2023-04-20T01:19:45;94405.13;;;6.33;82.51
9855;BME280;4966;48.112;9.282;2023-04-20T01:22:16;94405.91;;;6.33;82.60
9855;BME280;4966;48.112;9.282;2023-04-20T01:24:42;94409.69;;;6.15;83.31
9855;BME280;4966;48.112;9.282;2023-04-20T01:27:07;94411.13;;;5.95;83.29
9855;BME280;4966;48.112;9.282;2023-04-20T01:29:33;94403.25;;;5.76;84.36
9855;BME280;4966;48.112;9.282;2023-04-20T01:31:59;94409.47;;;5.85;84.14
9855;BME280;4966;48.112;9.282;2023-04-20T01:34:24;94406.13;;;5.80;84.08
9855;BME280;4966;48.112;9.282;2023-04-20T01:36:50;94404.88;;;5.86;83.87
9855;BME280;4966;48.112;9.282;2023-04-20T01:39:16;94412.31;;;5.80;84.56
9855;BME280;4966;48.112;9.282;2023-04-20T01:41:41;94403.28;;;5.85;84.62
9855;BME280;4966;48.112;9.282;2023-04-20T01:44:06;94392.72;;;6.06;83.63
9855;BME280;4966;48.112;9.282;2023-04-20T01:46:32;94386.34;;;6.19;83.01
9855;BME280;4966;48.112;9.282;2023-04-20T01:49:00;94386.75;;;5.78;83.38
9855;BME280;4966;48.112;9.282;2023-04-20T01:51:26;94385.97;;;5.86;83.08
9855;BME280;4966;48.112;9.282;2023-04-20T01:53:52;94384.53;;;5.88;82.98
9855;BME280;4966;48.112;9.282;2023-04-20T01:56:17;94371.53;;;5.90;82.96
9855;BME280;4966;48.112;9.282;2023-04-20T01:58:42;94372.66;;;5.89;82.46
9855;BME280;4966;48.112;9.282;2023-04-20T02:01:08;94370.22;;;5.62;83.71
9855;BME280;4966;48.112;9.282;2023-04-20T02:03:33;94361.97;;;5.58;83.68
9855;BME280;4966;48.112;9.282;2023-04-20T02:05:58;94359.13;;;5.81;83.48
9855;BME280;4966;48.112;9.282;2023-04-20T02:08:24;94352.59;;;5.82;84.13
9855;BME280;4966;48.112;9.282;2023-04-20T02:10:49;94346.88;;;5.74;84.35
9855;BME280;4966;48.112;9.282;2023-04-20T02:13:15;94348.97;;;5.86;84.39
9855;BME280;4966;48.112;9.282;2023-04-20T02:15:40;94351.28;;;5.53;83.49
9855;BME280;4966;48.112;9.282;2023-04-20T02:18:06;94354.00;;;5.62;83.22
9855;BME280;4966;48.112;9.282;2023-04-20T02:20:31;94363.56;;;5.68;83.26
9855;BME280;4966;48.112;9.282;2023-04-20T02:22:56;94366.59;;;5.75;82.73
9855;BME280;4966;48.112;9.282;2023-04-20T02:25:22;94364.06;;;5.87;82.80
9855;BME280;4966;48.112;9.282;2023-04-20T02:27:48;94362.84;;;6.02;82.11
9855;BME280;4966;48.112;9.282;2023-04-20T02:30:13;94357.28;;;5.99;81.92
9855;BME280;4966;48.112;9.282;2023-04-20T02:32:39;94349.94;;;5.90;80.99
9855;BME280;4966;48.112;9.282;2023-04-20T02:35:05;94345.41;;;5.42;82.08
9855;BME280;4966;48.112;9.282;2023-04-20T02:37:30;94333.59;;;5.87;82.32
9855;BME280;4966;48.112;9.282;2023-04-20T02:39:56;94325.50;;;5.87;82.96
9855;BME280;4966;48.112;9.282;2023-04-20T02:42:21;94326.75;;;5.89;82.75
9855;BME280;4966;48.112;9.282;2023-04-20T02:44:47;94323.78;;;6.00;82.59
9855;BME280;4966;48.112;9.282;2023-04-20T02:47:12;94317.06;;;5.88;81.57
9855;BME280;4966;48.112;9.282;2023-04-20T02:49:37;94327.69;;;5.76;81.99
9855;BME280;4966;48.112;9.282;2023-04-20T02:52:03;94321.16;;;5.60;82.57
9855;BME280;4966;48.112;9.282;2023-04-20T02:54:29;94330.69;;;5.66;82.12
9855;BME280;4966;48.112;9.282;2023-04-20T02:56:54;94322.91;;;5.56;82.01
9855;BME280;4966;48.112;9.282;2023-04-20T02:59:20;94314.03;;;5.72;81.57
9855;BME280;4966;48.112;9.282;2023-04-20T03:01:45;94317.84;;;5.89;81.10
9855;BME280;4966;48.112;9.282;2023-04-20T03:04:11;94315.16;;;5.89;81.18
9855;BME280;4966;48.112;9.282;2023-04-20T03:06:36;94308.34;;;5.91;81.00
9855;BME280;4966;48.112;9.282;2023-04-20T03:09:04;94302.47;;;5.98;81.81
9855;BME280;4966;48.112;9.282;2023-04-20T03:11:30;94298.81;;;6.03;81.99
9855;BME280;4966;48.112;9.282;2023-04-20T03:13:55;94300.59;;;5.99;81.72
9855;BME280;4966;48.112;9.282;2023-04-20T03:16:20;94292.44;;;5.81;81.66
9855;BME280;4966;48.112;9.282;2023-04-20T03:18:46;94299.75;;;5.89;80.63
9855;BME280;4966;48.112;9.282;2023-04-20T03:21:11;94288.16;;;5.89;80.44
9855;BME280;4966;48.112;9.282;2023-04-20T03:23:36;94291.19;;;5.79;80.82
9855;BME280;4966;48.112;9.282;2023-04-20T03:26:02;94294.22;;;5.77;81.61
9855;BME280;4966;48.112;9.282;2023-04-20T03:28:28;94295.00;;;5.78;81.76
9855;BME280;4966;48.112;9.282;2023-04-20T03:30:53;94297.84;;;5.90;81.95
9855;BME280;4966;48.112;9.282;2023-04-20T03:33:19;94294.06;;;6.00;81.84
9855;BME280;4966;48.112;9.282;2023-04-20T03:35:44;94284.69;;;5.97;81.00
9855;BME280;4966;48.112;9.282;2023-04-20T03:38:10;94288.66;;;5.82;81.85
9855;BME280;4966;48.112;9.282;2023-04-20T03:40:35;94281.81;;;5.85;80.71
9855;BME280;4966;48.112;9.282;2023-04-20T03:43:01;94296.16;;;5.94;79.60
9855;BME280;4966;48.112;9.282;2023-04-20T03:45:26;94289.75;;;5.90;79.75
9855;BME280;4966;48.112;9.282;2023-04-20T03:47:52;94272.44;;;5.65;80.56
9855;BME280;4966;48.112;9.282;2023-04-20T03:50:17;94274.66;;;5.54;81.99
9855;BME280;4966;48.112;9.282;2023-04-20T03:52:43;94282.13;;;5.83;80.49
9855;BME280;4966;48.112;9.282;2023-04-20T03:55:08;94276.41;;;5.85;80.13
9855;BME280;4966;48.112;9.282;2023-04-20T03:57:33;94275.63;;;5.84;79.83
9855;BME280;4966;48.112;9.282;2023-04-20T03:59:59;94274.19;;;5.69;80.71
9855;BME280;4966;48.112;9.282;2023-04-20T04:02:25;94279.06;;;5.50;81.27
9855;BME280;4966;48.112;9.282;2023-04-20T04:04:50;94271.00;;;5.50;81.91
9855;BME280;4966;48.112;9.282;2023-04-20T04:07:15;94261.81;;;5.68;81.10
9855;BME280;4966;48.112;9.282;2023-04-20T04:09:41;94267.81;;;5.48;82.09
9855;BME280;4966;48.112;9.282;2023-04-20T04:12:06;94259.88;;;5.60;81.62
9855;BME280;4966;48.112;9.282;2023-04-20T04:14:33;94263.34;;;5.43;83.62
9855;BME280;4966;48.112;9.282;2023-04-20T04:16:58;94259.38;;;5.41;83.47
9855;BME280;4966;48.112;9.282;2023-04-20T04:19:24;94261.94;;;5.54;83.45
9855;BME280;4966;48.112;9.282;2023-04-20T04:21:49;94268.78;;;5.52;82.30
9855;BME280;4966;48.112;9.282;2023-04-20T04:24:15;94269.75;;;5.73;82.50
9855;BME280;4966;48.112;9.282;2023-04-20T04:26:41;94258.47;;;5.71;81.57
9855;BME280;4966;48.112;9.282;2023-04-20T04:29:07;94257.38;;;5.90;80.70
9855;BME280;4966;48.112;9.282;2023-04-20T04:31:34;94260.22;;;5.85;81.53
9855;BME280;4966;48.112;9.282;2023-04-20T04:34:00;94254.00;;;5.49;82.71
9855;BME280;4966;48.112;9.282;2023-04-20T04:36:25;94251.00;;;5.68;82.56
9855;BME280;4966;48.112;9.282;2023-04-20T04:38:51;94247.22;;;5.61;82.94
9855;BME280;4966;48.112;9.282;2023-04-20T04:41:16;94255.56;;;5.24;85.36
9855;BME280;4966;48.112;9.282;2023-04-20T04:43:43;94255.38;;;5.12;85.33
9855;BME280;4966;48.112;9.282;2023-04-20T04:46:09;94248.72;;;5.18;85.94
9855;BME280;4966;48.112;9.282;2023-04-20T04:48:38;94248.09;;;5.21;86.36
9855;BME280;4966;48.112;9.282;2023-04-20T04:51:07;94254.00;;;5.41;85.98
9855;BME280;4966;48.112;9.282;2023-04-20T04:53:34;94254.47;;;5.60;84.41
9855;BME280;4966;48.112;9.282;2023-04-20T04:55:59;94258.34;;;5.94;83.55
9855;BME280;4966;48.112;9.282;2023-04-20T04:58:25;94260.19;;;5.93;83.43
9855;BME280;4966;48.112;9.282;2023-04-20T05:00:50;94264.50;;;5.51;85.89
9855;BME280;4966;48.112;9.282;2023-04-20T05:03:16;94267.63;;;5.27;86.88
9855;BME280;4966;48.112;9.282;2023-04-20T05:05:41;94266.81;;;5.26;86.34
9855;BME280;4966;48.112;9.282;2023-04-20T05:08:07;94264.56;;;5.11;87.45
9855;BME280;4966;48.112;9.282;2023-04-20T05:10:32;94263.03;;;5.36;86.73
9855;BME280;4966;48.112;9.282;2023-04-20T05:12:58;94258.53;;;5.14;87.42
9855;BME280;4966;48.112;9.282;2023-04-20T05:15:24;94252.25;;;5.27;86.74
9855;BME280;4966;48.112;9.282;2023-04-20T05:17:50;94259.19;;;5.11;87.36
9855;BME280;4966;48.112;9.282;2023-04-20T05:20:16;94254.97;;;5.45;86.02
9855;BME280;4966;48.112;9.282;2023-04-20T05:22:42;94263.22;;;5.48;85.31
9855;BME280;4966;48.112;9.282;2023-04-20T05:25:07;94259.09;;;5.42;85.17
9855;BME280;4966;48.112;9.282;2023-04-20T05:27:33;94264.16;;;5.35;84.96
9855;BME280;4966;48.112;9.282;2023-04-20T05:29:58;94265.75;;;5.45;84.57
9855;BME280;4966;48.112;9.282;2023-04-20T05:32:24;94267.53;;;5.58;85.12
9855;BME280;4966;48.112;9.282;2023-04-20T05:34:49;94267.63;;;5.27;84.94
9855;BME280;4966;48.112;9.282;2023-04-20T05:37:15;94272.69;;;5.28;85.21
9855;BME280;4966;48.112;9.282;2023-04-20T05:39:40;94269.56;;;5.44;85.33
9855;BME280;4966;48.112;9.282;2023-04-20T05:42:06;94267.97;;;5.51;83.90
9855;BME280;4966;48.112;9.282;2023-04-20T05:44:31;94268.84;;;5.12;86.25
9855;BME280;4966;48.112;9.282;2023-04-20T05:46:58;94257.31;;;5.38;86.13
9855;BME280;4966;48.112;9.282;2023-04-20T05:49:23;94261.84;;;4.94;87.72
9855;BME280;4966;48.112;9.282;2023-04-20T05:51:49;94264.94;;;5.36;86.44
9855;BME280;4966;48.112;9.282;2023-04-20T05:54:15;94255.75;;;5.37;84.88
9855;BME280;4966;48.112;9.282;2023-04-20T05:56:41;94264.75;;;5.23;86.27
9855;BME280;4966;48.112;9.282;2023-04-20T05:59:07;94268.00;;;4.94;86.69
9855;BME280;4966;48.112;9.282;2023-04-20T06:01:33;94265.91;;;5.40;85.86
9855;BME280;4966;48.112;9.282;2023-04-20T06:03:58;94266.38;;;5.24;85.38
9855;BME280;4966;48.112;9.282;2023-04-20T06:06:23;94268.84;;;5.12;87.03
9855;BME280;4966;48.112;9.282;2023-04-20T06:08:49;94251.88;;;5.03;87.16
9855;BME280;4966;48.112;9.282;2023-04-20T06:11:15;94263.59;;;5.07;87.37
9855;BME280;4966;48.112;9.282;2023-04-20T06:13:41;94263.78;;;5.19;87.01
9855;BME280;4966;48.112;9.282;2023-04-20T06:16:06;94264.34;;;4.90;87.02
9855;BME280;4966;48.112;9.282;2023-04-20T06:18:34;94261.25;;;5.05;87.01
9855;BME280;4966;48.112;9.282;2023-04-20T06:21:00;94256.16;;;5.04;87.91
9855;BME280;4966;48.112;9.282;2023-04-20T06:23:26;94253.75;;;5.02;87.52
9855;BME280;4966;48.112;9.282;2023-04-20T06:25:51;94253.72;;;4.85;88.37
9855;BME280;4966;48.112;9.282;2023-04-20T06:28:17;94265.38;;;5.20;86.66
9855;BME280;4966;48.112;9.282;2023-04-20T06:30:42;94257.75;;;5.14;86.64
9855;BME280;4966;48.112;9.282;2023-04-20T06:33:08;94253.63;;;5.16;87.10
9855;BME280;4966;48.112;9.282;2023-04-20T06:35:33;94252.69;;;5.21;87.86
9855;BME280;4966;48.112;9.282;2023-04-20T06:37:58;94248.88;;;5.22;88.72
9855;BME280;4966;48.112;9.282;2023-04-20T06:40:27;94245.75;;;5.46;87.51
9855;BME280;4966;48.112;9.282;2023-04-20T06:42:53;94248.97;;;4.90;88.23
9855;BME280;4966;48.112;9.282;2023-04-20T06:45:18;94251.41;;;5.09;87.86
9855;BME280;4966;48.112;9.282;2023-04-20T06:47:44;94253.78;;;5.11;88.18
9855;BME280;4966;48.112;9.282;2023-04-20T06:50:10;94249.16;;;4.94;87.73
9855;BME280;4966;48.112;9.282;2023-04-20T06:52:36;94253.81;;;5.28;88.06
9855;BME280;4966;48.112;9.282;2023-04-20T06:55:02;94240.78;;;5.13;87.40
9855;BME280;4966;48.112;9.282;2023-04-20T06:57:27;94250.97;;;5.33;87.78
9855;BME280;4966;48.112;9.282;2023-04-20T06:59:53;94242.13;;;5.76;86.37
9855;BME280;4966;48.112;9.282;2023-04-20T07:02:18;94245.13;;;5.84;85.05
9855;BME280;4966;48.112;9.282;2023-04-20T07:04:43;94244.19;;;5.71;84.29
9855;BME280;4966;48.112;9.282;2023-04-20T07:07:09;94233.84;;;6.25;83.80
9855;BME280;4966;48.112;9.282;2023-04-20T07:09:34;94246.06;;;5.44;86.23
9855;BME280;4966;48.112;9.282;2023-04-20T07:11:59;94244.31;;;5.22;86.51
9855;BME280;4966;48.112;9.282;2023-04-20T07:14:25;94241.00;;;5.51;84.76
9855;BME280;4966;48.112;9.282;2023-04-20T07:16:53;94240.69;;;5.62;85.82
9855;BME280;4966;48.112;9.282;2023-04-20T07:19:19;94233.72;;;5.95;85.14
9855;BME280;4966;48.112;9.282;2023-04-20T07:21:45;94236.09;;;5.97;83.87
9855;BME280;4966;48.112;9.282;2023-04-20T07:24:10;94245.31;;;6.13;84.49
9855;BME280;4966;48.112;9.282;2023-04-20T07:26:37;94240.22;;;5.60;83.68
9855;BME280;4966;48.112;9.282;2023-04-20T07:29:03;94244.66;;;6.08;84.73
9855;BME280;4966;48.112;9.282;2023-04-20T07:31:28;94241.00;;;5.86;84.45
9855;BME280;4966;48.112;9.282;2023-04-20T07:33:53;94242.22;;;5.19;86.83
9855;BME280;4966;48.112;9.282;2023-04-20T07:36:19;94239.13;;;5.61;86.22
9855;BME280;4966;48.112;9.282;2023-04-20T07:38:46;94244.34;;;5.48;85.76
9855;BME280;4966;48.112;9.282;2023-04-20T07:41:12;94242.13;;;5.76;84.71
9855;BME280;4966;48.112;9.282;2023-04-20T07:43:37;94237.47;;;5.16;87.11
9855;BME280;4966;48.112;9.282;2023-04-20T07:46:06;94230.78;;;5.14;89.24
9855;BME280;4966;48.112;9.282;2023-04-20T07:48:35;94231.63;;;5.66;84.83
9855;BME280;4966;48.112;9.282;2023-04-20T07:51:00;94240.22;;;5.60;84.75
9855;BME280;4966;48.112;9.282;2023-04-20T07:53:27;94240.66;;;5.53;86.03
9855;BME280;4966;48.112;9.282;2023-04-20T07:55:53;94240.81;;;6.35;84.07
9855;BME280;4966;48.112;9.282;2023-04-20T07:58:18;94238.31;;;6.12;83.74
9855;BME280;4966;48.112;9.282;2023-04-20T08:00:45;94239.25;;;6.25;81.73
9855;BME280;4966;48.112;9.282;2023-04-20T08:03:11;94245.94;;;6.02;83.89
9855;BME280;4966;48.112;9.282;2023-04-20T08:05:37;94248.22;;;6.55;82.42
9855;BME280;4966;48.112;9.282;2023-04-20T08:08:03;94242.72;;;6.81;81.65
9855;BME280;4966;48.112;9.282;2023-04-20T08:10:28;94243.94;;;6.54;81.17
9855;BME280;4966;48.112;9.282;2023-04-20T08:12:54;94242.63;;;6.60;81.40
9855;BME280;4966;48.112;9.282;2023-04-20T08:15:19;94243.75;;;6.59;79.90
9855;BME280;4966;48.112;9.282;2023-04-20T08:17:45;94234.38;;;6.01;84.93
9855;BME280;4966;48.112;9.282;2023-04-20T08:20:10;94233.06;;;6.72;82.92
9855;BME280;4966;48.112;9.282;2023-04-20T08:22:37;94228.91;;;6.27;84.37
9855;BME280;4966;48.112;9.282;2023-04-20T08:25:03;94218.13;;;6.18;83.30
9855;BME280;4966;48.112;9.282;2023-04-20T08:27:29;94219.25;;;5.74;85.52
9855;BME280;4966;48.112;9.282;2023-04-20T08:29:54;94220.69;;;6.06;84.77
9855;BME280;4966;48.112;9.282;2023-04-20T08:32:20;94218.91;;;6.28;85.07
9855;BME280;4966;48.112;9.282;2023-04-20T08:34:48;94222.88;;;6.30;83.80
9855;BME280;4966;48.112;9.282;2023-04-20T08:37:14;94224.34;;;6.66;85.08
9855;BME280;4966;48.112;9.282;2023-04-20T08:39:39;94227.00;;;6.28;83.89
9855;BME280;4966;48.112;9.282;2023-04-20T08:42:05;94225.75;;;5.82;83.41
9855;BME280;4966;48.112;9.282;2023-04-20T08:44:31;94232.44;;;5.58;87.00
9855;BME280;4966;48.112;9.282;2023-04-20T08:46:58;94230.06;;;6.00;87.59
9855;BME280;4966;48.112;9.282;2023-04-20T08:49:26;94230.47;;;6.37;86.04
9855;BME280;4966;48.112;9.282;2023-04-20T08:51:52;94225.97;;;5.94;83.69
9855;BME280;4966;48.112;9.282;2023-04-20T08:54:18;94236.25;;;5.57;87.05
9855;BME280;4966;48.112;9.282;2023-04-20T08:56:46;94239.41;;;5.42;88.85
9855;BME280;4966;48.112;9.282;2023-04-20T08:59:11;94234.59;;;5.21;87.35
9855;BME280;4966;48.112;9.282;2023-04-20T09:01:40;94228.44;;;5.29;88.82
9855;BME280;4966;48.112;9.282;2023-04-20T09:04:25;94233.69;;;5.35;88.52
9855;BME280;4966;48.112;9.282;2023-04-20T09:06:54;94240.69;;;5.70;87.90
9855;BME280;4966;48.112;9.282;2023-04-20T09:09:22;94238.47;;;5.72;87.44
9855;BME280;4966;48.112;9.282;2023-04-20T09:11:59;94238.47;;;5.72;88.88
9855;BME280;4966;48.112;9.282;2023-04-20T09:14:27;94231.28;;;6.37;86.06
9855;BME280;4966;48.112;9.282;2023-04-20T09:16:54;94234.75;;;6.47;85.26
9855;BME280;4966;48.112;9.282;2023-04-20T09:19:27;94229.34;;;6.38;85.40
9855;BME280;4966;48.112;9.282;2023-04-20T09:21:54;94233.19;;;6.20;84.55
9855;BME280;4966;48.112;9.282;2023-04-20T09:24:22;94228.78;;;6.06;84.97
9855;BME280;4966;48.112;9.282;2023-04-20T09:26:47;94233.22;;;5.85;85.94
9855;BME280;4966;48.112;9.282;2023-04-20T09:29:22;94233.50;;;6.35;85.18
9855;BME280;4966;48.112;9.282;2023-04-20T09:31:48;94234.03;;;6.11;86.15
9855;BME280;4966;48.112;9.282;2023-04-20T09:34:15;94226.13;;;6.53;84.70
9855;BME280;4966;48.112;9.282;2023-04-20T09:36:42;94226.56;;;6.64;85.01
9855;BME280;4966;48.112;9.282;2023-04-20T09:39:13;94229.00;;;6.87;86.34
9855;BME280;4966;48.112;9.282;2023-04-20T09:41:40;94231.09;;;6.90;84.60
9855;BME280;4966;48.112;9.282;2023-04-20T09:44:08;94221.25;;;7.15;84.00
9855;BME280;4966;48.112;9.282;2023-04-20T09:46:36;94219.56;;;7.31;79.05
9855;BME280;4966;48.112;9.282;2023-04-20T09:49:03;94214.91;;;7.61;81.64
9855;BME280;4966;48.112;9.282;2023-04-20T09:51:33;94216.91;;;7.43;80.11
9855;BME280;4966;48.112;9.282;2023-04-20T09:54:02;94223.28;;;6.88;82.89
9855;BME280;4966;48.112;9.282;2023-04-20T09:56:29;94216.38;;;6.70;83.10
9855;BME280;4966;48.112;9.282;2023-04-20T09:58:56;94211.75;;;7.30;83.55
9855;BME280;4966;48.112;9.282;2023-04-20T10:01:22;94213.88;;;7.66;81.42
9855;BME280;4966;48.112;9.282;2023-04-20T10:03:48;94209.63;;;7.14;80.70
9855;BME280;4966;48.112;9.282;2023-04-20T10:06:33;94206.31;;;7.09;82.90
9855;BME280;4966;48.112;9.282;2023-04-20T10:09:04;94202.81;;;7.38;84.19
9855;BME280;4966;48.112;9.282;2023-04-20T10:11:32;94207.75;;;7.78;85.19
9855;BME280;4966;48.112;9.282;2023-04-20T10:14:01;94196.63;;;8.25;84.01
9855;BME280;4966;48.112;9.282;2023-04-20T10:16:37;94195.97;;;8.28;80.69
9855;BME280;4966;48.112;9.282;2023-04-20T10:19:03;94190.31;;;8.79;78.23
9855;BME280;4966;48.112;9.282;2023-04-20T10:21:29;94171.88;;;9.09;75.72
9855;BME280;4966;48.112;9.282;2023-04-20T10:23:57;94172.38;;;8.74;75.61
9855;BME280;4966;48.112;9.282;2023-04-20T10:26:35;94182.00;;;7.93;77.83
9855;BME280;4966;48.112;9.282;2023-04-20T10:29:01;94189.38;;;7.20;80.48
9855;BME280;4966;48.112;9.282;2023-04-20T10:31:40;94186.72;;;7.96;80.86
9855;BME280;4966;48.112;9.282;2023-04-20T10:34:06;94178.44;;;7.38;79.34
9855;BME280;4966;48.112;9.282;2023-04-20T10:36:34;94175.81;;;7.50;81.93
9855;BME280;4966;48.112;9.282;2023-04-20T10:39:16;94179.81;;;8.19;81.81
9855;BME280;4966;48.112;9.282;2023-04-20T10:41:53;94174.75;;;7.97;81.70
9855;BME280;4966;48.112;9.282;2023-04-20T10:44:19;94184.13;;;7.24;80.92
9855;BME280;4966;48.112;9.282;2023-04-20T10:46:52;94181.34;;;7.12;82.63
9855;BME280;4966;48.112;9.282;2023-04-20T10:49:17;94175.88;;;6.91;84.97
9855;BME280;4966;48.112;9.282;2023-04-20T10:51:50;94176.41;;;6.46;84.61
9855;BME280;4966;48.112;9.282;2023-04-20T10:54:16;94174.00;;;6.53;84.21
9855;BME280;4966;48.112;9.282;2023-04-20T10:56:46;94176.16;;;6.30;84.82
9855;BME280;4966;48.112;9.282;2023-04-20T10:59:14;94162.28;;;5.84;88.22
9855;BME280;4966;48.112;9.282;2023-04-20T11:01:40;94167.31;;;6.12;87.55
9855;BME280;4966;48.112;9.282;2023-04-20T11:04:06;94159.63;;;6.31;88.91
9855;BME280;4966;48.112;9.282;2023-04-20T11:06:33;94164.59;;;6.59;88.03
9855;BME280;4966;48.112;9.282;2023-04-20T11:08:59;94166.31;;;6.25;85.09
9855;BME280;4966;48.112;9.282;2023-04-20T11:11:25;94154.88;;;6.28;85.19
9855;BME280;4966;48.112;9.282;2023-04-20T11:14:07;94157.41;;;6.25;87.60
9855;BME280;4966;48.112;9.282;2023-04-20T11:16:34;94155.09;;;6.06;89.09
9855;BME280;4966;48.112;9.282;2023-04-20T11:19:00;94159.22;;;6.50;85.01
9855;BME280;4966;48.112;9.282;2023-04-20T11:21:40;94162.75;;;6.42;86.85
9855;BME280;4966;48.112;9.282;2023-04-20T11:24:23;94173.16;;;6.23;86.32
9855;BME280;4966;48.112;9.282;2023-04-20T11:26:50;94173.50;;;6.59;85.92
9855;BME280;4966;48.112;9.282;2023-04-20T11:29:37;94165.94;;;6.74;84.83
9855;BME280;4966;48.112;9.282;2023-04-20T11:32:10;94152.09;;;6.46;87.31
9855;BME280;4966;48.112;9.282;2023-04-20T11:34:37;94148.09;;;6.52;85.04
9855;BME280;4966;48.112;9.282;2023-04-20T11:37:04;94146.03;;;6.49;85.88
9855;BME280;4966;48.112;9.282;2023-04-20T11:39:29;94130.94;;;6.09;85.86
9855;BME280;4966;48.112;9.282;2023-04-20T11:41:55;94134.88;;;6.21;86.48
9855;BME280;4966;48.112;9.282;2023-04-20T11:44:22;94132.78;;;5.44;90.17
9855;BME280;4966;48.112;9.282;2023-04-20T11:46:48;94131.47;;;5.76;91.39
9855;BME280;4966;48.112;9.282;2023-04-20T11:49:18;94122.66;;;6.14;88.56
9855;BME280;4966;48.112;9.282;2023-04-20T11:51:44;94136.53;;;5.87;88.59
9855;BME280;4966;48.112;9.282;2023-04-20T11:54:10;94148.09;;;6.52;88.54
9855;BME280;4966;48.112;9.282;2023-04-20T11:56:36;94148.00;;;6.69;84.96
9855;BME280;4966;48.112;9.282;2023-04-20T11:59:02;94153.03;;;6.50;87.26
9855;BME280;4966;48.112;9.282;2023-04-20T12:01:28;94135.19;;;6.19;88.04
9855;BME280;4966;48.112;9.282;2023-04-20T12:03:53;94140.31;;;6.12;88.15
9855;BME280;4966;48.112;9.282;2023-04-20T12:06:19;94136.19;;;6.06;88.27
9855;BME280;4966;48.112;9.282;2023-04-20T12:08:45;94135.47;;;5.62;89.17
9855;BME280;4966;48.112;9.282;2023-04-20T12:11:12;94139.22;;;5.95;88.84
9855;BME280;4966;48.112;9.282;2023-04-20T12:13:37;94138.06;;;6.82;86.01
9855;BME280;4966;48.112;9.282;2023-04-20T12:16:03;94135.63;;;6.68;86.10
9855;BME280;4966;48.112;9.282;2023-04-20T12:18:28;94138.63;;;6.67;87.77
9855;BME280;4966;48.112;9.282;2023-04-20T12:20:54;94136.19;;;6.82;85.72
9855;BME280;4966;48.112;9.282;2023-04-20T12:23:19;94138.31;;;6.98;85.74
9855;BME280;4966;48.112;9.282;2023-04-20T12:25:44;94135.00;;;7.13;85.41
9855;BME280;4966;48.112;9.282;2023-04-20T12:28:10;94138.66;;;7.38;84.49
9855;BME280;4966;48.112;9.282;2023-04-20T12:30:36;94136.59;;;6.64;84.12
9855;BME280;4966;48.112;9.282;2023-04-20T12:33:02;94136.72;;;7.18;85.05
9855;BME280;4966;48.112;9.282;2023-04-20T12:35:28;94130.38;;;7.35;85.98
9855;BME280;4966;48.112;9.282;2023-04-20T12:37:54;94128.69;;;6.79;85.83
9855;BME280;4966;48.112;9.282;2023-04-20T12:40:20;94128.16;;;7.16;85.85
9855;BME280;4966;48.112;9.282;2023-04-20T12:42:46;94128.94;;;7.37;82.42
9855;BME280;4966;48.112;9.282;2023-04-20T12:45:11;94133.44;;;7.54;82.32
9855;BME280;4966;48.112;9.282;2023-04-20T12:47:37;94135.47;;;7.36;83.09
9855;BME280;4966;48.112;9.282;2023-04-20T12:50:03;94129.22;;;7.02;84.80
9855;BME280;4966;48.112;9.282;2023-04-20T12:52:28;94140.94;;;7.28;85.12
9855;BME280;4966;48.112;9.282;2023-04-20T12:54:54;94131.19;;;7.35;83.04
9855;BME280;4966;48.112;9.282;2023-04-20T12:57:19;94133.69;;;7.19;82.41
9855;BME280;4966;48.112;9.282;2023-04-20T12:59:44;94138.84;;;7.33;84.20
9855;BME280;4966;48.112;9.282;2023-04-20T13:02:13;94141.28;;;7.26;85.84
9855;BME280;4966;48.112;9.282;2023-04-20T13:04:38;94143.53;;;7.45;84.82
9855;BME280;4966;48.112;9.282;2023-04-20T13:07:03;94135.94;;;7.38;83.46
9855;BME280;4966;48.112;9.282;2023-04-20T13:09:30;94125.59;;;7.19;83.73
9855;BME280;4966;48.112;9.282;2023-04-20T13:11:55;94131.22;;;6.85;83.38
9855;BME280;4966;48.112;9.282;2023-04-20T13:14:21;94135.47;;;6.94;86.90
9855;BME280;4966;48.112;9.282;2023-04-20T13:16:47;94134.56;;;6.81;84.81
9855;BME280;4966;48.112;9.282;2023-04-20T13:19:12;94130.75;;;7.33;82.99
9855;BME280;4966;48.112;9.282;2023-04-20T13:21:38;94131.13;;;7.44;83.17
9855;BME280;4966;48.112;9.282;2023-04-20T13:24:03;94125.44;;;7.37;83.78
9855;BME280;4966;48.112;9.282;2023-04-20T13:26:30;94128.28;;;6.98;84.17
9855;BME280;4966;48.112;9.282;2023-04-20T13:28:55;94128.94;;;7.37;84.60